PWSweather.com
Personal Weather Stations
Station Observations
ME1989
Sicily, Barcellona Pozzo Di GottoIT

SicilyBarcellona Pozzo Di GottoIT

Lat: 38.1487398, Lon: 15.2113962

Elevation: 131

Station Type: Peet Bros

Latest ConditionsUpdated 1:10:01 PM GMT+01:01 Thursday, Jun 29, 2017
Currently Today's Max Today's Min Today's Average
Temperature 82.8°F28.2°C 86.2°F30.1°C 78.7°F25.9°C 82.8°F28.2°C
Dew Point 72.4°F22.4°C 72.9°F22.7°C 53.1°F11.7°C 60.0°F15.6°C
Winds 6.9 mph N11.1 kmh N 11.5 mph NW18.5 kmh NW - 4.2 mph 6.8 kmh
Wind Gusts 12.7 mph20.4 kmh 13.8 mph22.2 kmh - -
Humidity 71% 73% 37% 47%
Pressure 29.83 in1010.2 mb 29.83 in1010.2 mb 29.74 in1007.1 mb -
Hour Temp Dew Point Humidity Winds Wind Gusts Pressure Precip Precip Rate Daily Precip Total
01:10 PM 82.8°F28.2°C 72.4°F22.4°C 71% 6.9 mph N11.1 kmh N 12.7 mph20.4 kmh 29.83 in1010.2 mb - 0.00 in0.0 mm 0.00 in0.0 mm
01:00 PM 82.9°F28.3°C 71.7°F22.1°C 69% 8.1 mph N13.0 kmh N 11.5 mph18.5 kmh 29.83 in1010.2 mb - 0.00 in0.0 mm 0.00 in0.0 mm
12:50 PM 82.6°F28.1°C 72.3°F22.4°C 71% 8.1 mph N13.0 kmh N 11.5 mph18.5 kmh 29.83 in1010.2 mb - 0.00 in0.0 mm 0.00 in0.0 mm
12:40 PM 82.5°F28.1°C 72.9°F22.7°C 73% 6.9 mph NNW11.1 kmh NNW 10.4 mph16.7 kmh 29.83 in1010.2 mb - 0.00 in0.0 mm 0.00 in0.0 mm
12:30 PM 81.7°F27.6°C 71.7°F22.1°C 72% 9.2 mph N14.8 kmh N 13.8 mph22.2 kmh 29.83 in1010.2 mb - 0.00 in0.0 mm 0.00 in0.0 mm
12:20 PM 82.0°F27.8°C 72.0°F22.2°C 72% 10.4 mph NW16.7 kmh NW 11.5 mph18.5 kmh 29.83 in1010.2 mb - 0.00 in0.0 mm 0.00 in0.0 mm
12:10 PM 82.4°F28.0°C 71.6°F22.0°C 70% 8.1 mph NNW13.0 kmh NNW 9.2 mph14.8 kmh 29.82 in1009.8 mb - 0.00 in0.0 mm 0.00 in0.0 mm
12:00 PM 81.8°F27.7°C 71.5°F21.9°C 71% 10.4 mph NNW16.7 kmh NNW 12.7 mph20.4 kmh 29.82 in1009.8 mb - 0.00 in0.0 mm 0.00 in0.0 mm
11:50 AM 82.4°F28.0°C 69.9°F21.1°C 66% 9.2 mph NNW14.8 kmh NNW 12.7 mph20.4 kmh 29.82 in1009.8 mb - 0.00 in0.0 mm 0.00 in0.0 mm
11:40 AM 82.7°F28.2°C 70.2°F21.2°C 66% 8.1 mph NNW13.0 kmh NNW 12.7 mph20.4 kmh 29.82 in1009.8 mb - 0.00 in0.0 mm 0.00 in0.0 mm
11:30 AM 84.0°F28.9°C 69.6°F20.9°C 62% 8.1 mph N13.0 kmh N 9.2 mph14.8 kmh 29.82 in1009.8 mb - 0.00 in0.0 mm 0.00 in0.0 mm
11:20 AM 83.8°F28.8°C 65.4°F18.6°C 54% 10.4 mph NNW16.7 kmh NNW 12.7 mph20.4 kmh 29.81 in1009.5 mb - 0.00 in0.0 mm 0.00 in0.0 mm
11:10 AM 85.4°F29.7°C 64.0°F17.8°C 49% 9.2 mph NNW14.8 kmh NNW 12.7 mph20.4 kmh 29.82 in1009.8 mb - 0.00 in0.0 mm 0.00 in0.0 mm
11:00 AM 84.7°F29.3°C 60.4°F15.8°C 44% 11.5 mph NW18.5 kmh NW 12.7 mph20.4 kmh 29.81 in1009.5 mb - 0.00 in0.0 mm 0.00 in0.0 mm
10:50 AM 84.9°F29.4°C 59.9°F15.5°C 43% 8.1 mph NNW13.0 kmh NNW 13.8 mph22.2 kmh 29.81 in1009.5 mb - 0.00 in0.0 mm 0.00 in0.0 mm
10:40 AM 84.9°F29.4°C 60.6°F15.9°C 44% 9.2 mph NNW14.8 kmh NNW 9.2 mph14.8 kmh 29.81 in1009.5 mb - 0.00 in0.0 mm 0.00 in0.0 mm
10:30 AM 85.4°F29.7°C 62.3°F16.8°C 46% 6.9 mph NNW11.1 kmh NNW 8.1 mph13.0 kmh 29.81 in1009.5 mb - 0.00 in0.0 mm 0.00 in0.0 mm
10:20 AM 85.5°F29.7°C 63.0°F17.2°C 47% 5.8 mph NNW9.3 kmh NNW 8.1 mph13.0 kmh 29.81 in1009.5 mb - 0.00 in0.0 mm 0.00 in0.0 mm
10:10 AM 84.7°F29.3°C 62.3°F16.8°C 47% 8.1 mph N13.0 kmh N 8.1 mph13.0 kmh 29.81 in1009.5 mb - 0.00 in0.0 mm 0.00 in0.0 mm
10:00 AM 84.5°F29.2°C 62.1°F16.7°C 47% 8.1 mph NNW13.0 kmh NNW 10.4 mph16.7 kmh 29.81 in1009.5 mb - 0.00 in0.0 mm 0.00 in0.0 mm
09:50 AM 84.4°F29.1°C 62.6°F17.0°C 48% 6.9 mph N11.1 kmh N 10.4 mph16.7 kmh 29.81 in1009.5 mb - 0.00 in0.0 mm 0.00 in0.0 mm
09:40 AM 84.9°F29.4°C 64.1°F17.8°C 50% 4.6 mph N7.4 kmh N 9.2 mph14.8 kmh 29.81 in1009.5 mb - 0.00 in0.0 mm 0.00 in0.0 mm
09:30 AM 84.4°F29.1°C 63.8°F17.7°C 50% 8.1 mph N13.0 kmh N 9.2 mph14.8 kmh 29.80 in1009.1 mb - 0.00 in0.0 mm 0.00 in0.0 mm
09:20 AM 84.5°F29.2°C 63.2°F17.3°C 49% 8.1 mph N13.0 kmh N 9.2 mph14.8 kmh 29.80 in1009.1 mb - 0.00 in0.0 mm 0.00 in0.0 mm
09:10 AM 84.9°F29.4°C 64.2°F17.9°C 50% 3.5 mph N5.6 kmh N 5.8 mph9.3 kmh 29.80 in1009.1 mb - 0.00 in0.0 mm 0.00 in0.0 mm
09:00 AM 84.4°F29.1°C 64.9°F18.3°C 52% 4.6 mph NNW7.4 kmh NNW 5.8 mph9.3 kmh 29.80 in1009.1 mb - 0.00 in0.0 mm 0.00 in0.0 mm
08:50 AM 84.3°F29.1°C 64.7°F18.2°C 52% 2.3 mph NNE3.7 kmh NNE 3.5 mph5.6 kmh 29.80 in1009.1 mb - 0.00 in0.0 mm 0.00 in0.0 mm
08:40 AM 84.3°F29.1°C 64.8°F18.2°C 52% 4.6 mph NNE7.4 kmh NNE 6.9 mph11.1 kmh 29.79 in1008.8 mb - 0.00 in0.0 mm 0.00 in0.0 mm
08:30 AM 83.8°F28.8°C 64.9°F18.3°C 53% 5.8 mph N9.3 kmh N 6.9 mph11.1 kmh 29.79 in1008.8 mb - 0.00 in0.0 mm 0.00 in0.0 mm
08:20 AM 84.2°F29.0°C 64.6°F18.1°C 52% 3.5 mph NNW5.6 kmh NNW 5.8 mph9.3 kmh 29.79 in1008.8 mb - 0.00 in0.0 mm 0.00 in0.0 mm
08:10 AM 84.1°F28.9°C 64.6°F18.1°C 52% 4.6 mph N7.4 kmh N 5.8 mph9.3 kmh 29.79 in1008.8 mb - 0.00 in0.0 mm 0.00 in0.0 mm
08:00 AM 84.1°F28.9°C 64.6°F18.1°C 52% 4.6 mph N7.4 kmh N 6.9 mph11.1 kmh 29.80 in1009.1 mb - 0.00 in0.0 mm 0.00 in0.0 mm
07:50 AM 84.2°F29.0°C 64.1°F17.8°C 51% 2.3 mph N3.7 kmh N 3.5 mph5.6 kmh 29.79 in1008.8 mb - 0.00 in0.0 mm 0.00 in0.0 mm
07:40 AM 84.1°F28.9°C 64.0°F17.8°C 51% 4.6 mph N7.4 kmh N 4.6 mph7.4 kmh 29.79 in1008.8 mb - 0.00 in0.0 mm 0.00 in0.0 mm
07:30 AM 84.5°F29.2°C 63.8°F17.7°C 50% 3.5 mph N5.6 kmh N 5.8 mph9.3 kmh 29.80 in1009.1 mb - 0.00 in0.0 mm 0.00 in0.0 mm
07:20 AM 84.9°F29.4°C 62.4°F16.9°C 47% 1.2 mph N1.9 kmh N -- 29.80 in1009.1 mb - 0.00 in0.0 mm 0.00 in0.0 mm
07:10 AM 84.7°F29.3°C 59.1°F15.1°C 42% Calm Calm 1.2 mph1.9 kmh 29.79 in1008.8 mb - 0.00 in0.0 mm 0.00 in0.0 mm
07:00 AM 84.0°F28.9°C 55.7°F13.2°C 38% Calm Calm -- 29.79 in1008.8 mb - 0.00 in0.0 mm 0.00 in0.0 mm
06:50 AM 83.4°F28.6°C 55.8°F13.2°C 39% Calm Calm -- 29.79 in1008.8 mb - 0.00 in0.0 mm 0.00 in0.0 mm
06:40 AM 82.4°F28.0°C 55.7°F13.2°C 40% Calm Calm -- 29.79 in1008.8 mb - 0.00 in0.0 mm 0.00 in0.0 mm
06:30 AM 81.6°F27.6°C 55.6°F13.1°C 41% Calm Calm -- 29.78 in1008.5 mb - 0.00 in0.0 mm 0.00 in0.0 mm
06:20 AM 81.4°F27.4°C 54.7°F12.6°C 40% Calm Calm -- 29.78 in1008.5 mb - 0.00 in0.0 mm 0.00 in0.0 mm
06:10 AM 81.8°F27.7°C 57.1°F13.9°C 43% Calm Calm -- 29.78 in1008.5 mb - 0.00 in0.0 mm 0.00 in0.0 mm
06:00 AM 80.6°F27.0°C 55.4°F13.0°C 42% Calm Calm -- 29.78 in1008.5 mb - 0.00 in0.0 mm 0.00 in0.0 mm
05:50 AM 80.3°F26.8°C 54.4°F12.4°C 41% Calm Calm -- 29.77 in1008.1 mb - 0.00 in0.0 mm 0.00 in0.0 mm
05:40 AM 80.1°F26.7°C 53.6°F12.0°C 40% Calm Calm -- 29.77 in1008.1 mb - 0.00 in0.0 mm 0.00 in0.0 mm
05:30 AM 79.6°F26.4°C 53.1°F11.7°C 40% Calm Calm -- 29.77 in1008.1 mb - 0.00 in0.0 mm 0.00 in0.0 mm
05:20 AM 78.7°F25.9°C 53.7°F12.1°C 42% 2.3 mph SW3.7 kmh SW 3.5 mph5.6 kmh 29.77 in1008.1 mb - 0.00 in0.0 mm 0.00 in0.0 mm
05:10 AM 78.9°F26.1°C 53.8°F12.1°C 42% Calm Calm -- 29.77 in1008.1 mb - 0.00 in0.0 mm 0.00 in0.0 mm
05:00 AM 79.2°F26.2°C 53.5°F11.9°C 41% Calm Calm -- 29.77 in1008.1 mb - 0.00 in0.0 mm 0.00 in0.0 mm
04:50 AM 79.5°F26.4°C 54.4°F12.4°C 42% Calm Calm -- 29.77 in1008.1 mb - 0.00 in0.0 mm 0.00 in0.0 mm
04:40 AM 79.5°F26.4°C 53.8°F12.1°C 41% Calm Calm 3.5 mph5.6 kmh 29.77 in1008.1 mb - 0.00 in0.0 mm 0.00 in0.0 mm
04:30 AM 79.6°F26.4°C 53.8°F12.1°C 41% Calm Calm -- 29.76 in1007.8 mb - 0.00 in0.0 mm 0.00 in0.0 mm
04:20 AM 80.1°F26.7°C 55.0°F12.8°C 42% 4.6 mph NNW7.4 kmh NNW 5.8 mph9.3 kmh 29.76 in1007.8 mb - 0.00 in0.0 mm 0.00 in0.0 mm
04:10 AM 80.5°F26.9°C 53.9°F12.2°C 40% Calm Calm -- 29.76 in1007.8 mb - 0.00 in0.0 mm 0.00 in0.0 mm
04:00 AM 80.5°F26.9°C 53.9°F12.2°C 40% 3.5 mph SW5.6 kmh SW 5.8 mph9.3 kmh 29.75 in1007.5 mb - 0.00 in0.0 mm 0.00 in0.0 mm
03:50 AM 80.6°F27.0°C 54.7°F12.6°C 41% 3.5 mph WSW5.6 kmh WSW 4.6 mph7.4 kmh 29.76 in1007.8 mb - 0.00 in0.0 mm 0.00 in0.0 mm
03:40 AM 80.8°F27.1°C 54.9°F12.7°C 41% 3.5 mph SW5.6 kmh SW 4.6 mph7.4 kmh 29.76 in1007.8 mb - 0.00 in0.0 mm 0.00 in0.0 mm
03:30 AM 81.4°F27.4°C 54.7°F12.6°C 40% 2.3 mph SW3.7 kmh SW 3.5 mph5.6 kmh 29.76 in1007.8 mb - 0.00 in0.0 mm 0.00 in0.0 mm
03:20 AM 81.4°F27.4°C 54.7°F12.6°C 40% 2.3 mph SSW3.7 kmh SSW 3.5 mph5.6 kmh 29.76 in1007.8 mb - 0.00 in0.0 mm 0.00 in0.0 mm
03:10 AM 81.4°F27.4°C 54.8°F12.7°C 40% 3.5 mph SW5.6 kmh SW 4.6 mph7.4 kmh 29.76 in1007.8 mb - 0.00 in0.0 mm 0.00 in0.0 mm
03:00 AM 82.1°F27.8°C 54.7°F12.6°C 39% 1.2 mph WSW1.9 kmh WSW 2.3 mph3.7 kmh 29.76 in1007.8 mb - 0.00 in0.0 mm 0.00 in0.0 mm
02:50 AM 82.4°F28.0°C 54.3°F12.4°C 38% 2.3 mph SW3.7 kmh SW 2.3 mph3.7 kmh 29.76 in1007.8 mb - 0.00 in0.0 mm 0.00 in0.0 mm
02:40 AM 82.2°F27.9°C 54.1°F12.3°C 38% 3.5 mph SW5.6 kmh SW 5.8 mph9.3 kmh 29.76 in1007.8 mb - 0.00 in0.0 mm 0.00 in0.0 mm
02:30 AM 82.5°F28.1°C 53.6°F12.0°C 37% 3.5 mph SW5.6 kmh SW 4.6 mph7.4 kmh 29.75 in1007.5 mb - 0.00 in0.0 mm 0.00 in0.0 mm
02:20 AM 82.4°F28.0°C 53.5°F11.9°C 37% 3.5 mph SW5.6 kmh SW 4.6 mph7.4 kmh 29.75 in1007.5 mb - 0.00 in0.0 mm 0.00 in0.0 mm
02:10 AM 82.3°F27.9°C 54.2°F12.3°C 38% 3.5 mph WSW5.6 kmh WSW 4.6 mph7.4 kmh 29.75 in1007.5 mb - 0.00 in0.0 mm 0.00 in0.0 mm
02:00 AM 82.3°F27.9°C 53.4°F11.9°C 37% 4.6 mph WSW7.4 kmh WSW 6.9 mph11.1 kmh 29.75 in1007.5 mb - 0.00 in0.0 mm 0.00 in0.0 mm
01:50 AM 82.2°F27.9°C 54.1°F12.3°C 38% 5.8 mph SW9.3 kmh SW 4.6 mph7.4 kmh 29.75 in1007.5 mb - 0.00 in0.0 mm 0.00 in0.0 mm
01:40 AM 82.2°F27.9°C 54.8°F12.7°C 39% 3.5 mph SW5.6 kmh SW 5.8 mph9.3 kmh 29.75 in1007.5 mb - 0.00 in0.0 mm 0.00 in0.0 mm
01:30 AM 82.4°F28.0°C 55.0°F12.8°C 39% 3.5 mph SW5.6 kmh SW 5.8 mph9.3 kmh 29.74 in1007.1 mb - 0.00 in0.0 mm 0.00 in0.0 mm
01:20 AM 82.8°F28.2°C 55.3°F12.9°C 39% 4.6 mph WSW7.4 kmh WSW 5.8 mph9.3 kmh 29.74 in1007.1 mb - 0.00 in0.0 mm 0.00 in0.0 mm
01:10 AM 83.1°F28.4°C 55.6°F13.1°C 39% 5.8 mph SW9.3 kmh SW 6.9 mph11.1 kmh 29.74 in1007.1 mb - 0.00 in0.0 mm 0.00 in0.0 mm
01:00 AM 83.5°F28.6°C 56.6°F13.7°C 40% 5.8 mph SW9.3 kmh SW 6.9 mph11.1 kmh 29.74 in1007.1 mb - 0.00 in0.0 mm 0.00 in0.0 mm
12:50 AM 83.9°F28.8°C 57.7°F14.3°C 41% 3.5 mph SW5.6 kmh SW 4.6 mph7.4 kmh 29.74 in1007.1 mb - 0.00 in0.0 mm 0.00 in0.0 mm
12:40 AM 84.2°F29.0°C 57.2°F14.0°C 40% 2.3 mph WSW3.7 kmh WSW 4.6 mph7.4 kmh 29.74 in1007.1 mb - 0.00 in0.0 mm 0.00 in0.0 mm
12:30 AM 84.6°F29.2°C 58.3°F14.6°C 41% 1.2 mph SW1.9 kmh SW 1.2 mph1.9 kmh 29.74 in1007.1 mb - 0.00 in0.0 mm 0.00 in0.0 mm
12:20 AM 85.0°F29.4°C 58.0°F14.4°C 40% 1.2 mph WSW1.9 kmh WSW 2.3 mph3.7 kmh 29.75 in1007.5 mb - 0.00 in0.0 mm 0.00 in0.0 mm
12:10 AM 85.4°F29.7°C 58.4°F14.7°C 40% 3.5 mph S5.6 kmh S 4.6 mph7.4 kmh 29.75 in1007.5 mb - 0.00 in0.0 mm 0.00 in0.0 mm
12:00 AM 86.2°F30.1°C 59.0°F15.0°C 40% 1.2 mph E1.9 kmh E 2.3 mph3.7 kmh 29.75 in1007.5 mb - 0.00 in0.0 mm 0.00 in0.0 mm